createdAt,value
2018-09-04T00:00:34.312Z,15.00
2018-09-04T00:03:01.546Z,14.10
2018-09-04T00:05:28.908Z,14.20
2018-09-04T00:07:56.009Z,18.27
2018-09-04T00:10:23.122Z,18.87
2018-09-04T00:12:50.234Z,14.53
2018-09-04T00:15:17.343Z,13.53
2018-09-04T00:17:44.470Z,15.93
2018-09-04T00:20:11.589Z,15.37
2018-09-04T00:22:38.749Z,16.70
2018-09-04T00:25:06.080Z,17.60
2018-09-04T00:27:33.181Z,15.60
2018-09-04T00:30:00.299Z,16.30
2018-09-04T00:32:27.409Z,15.53
2018-09-04T00:34:54.514Z,13.93
2018-09-04T00:37:21.624Z,17.87
2018-09-04T00:39:49.615Z,13.30
2018-09-04T00:42:16.724Z,18.50
2018-09-04T00:44:43.838Z,15.43
2018-09-04T00:47:10.953Z,13.90
2018-09-04T00:49:38.063Z,14.77
2018-09-04T00:52:05.197Z,16.80
2018-09-04T00:54:32.317Z,20.67
2018-09-04T00:56:59.434Z,24.53
2018-09-04T00:59:26.533Z,24.17
2018-09-04T01:01:53.673Z,24.00
2018-09-04T01:04:20.806Z,17.93
2018-09-04T01:06:47.897Z,22.43
2018-09-04T01:09:16.538Z,22.87
2018-09-04T01:11:43.641Z,27.33
2018-09-04T01:14:10.750Z,23.60
2018-09-04T01:16:37.889Z,20.13
2018-09-04T01:19:05.018Z,21.10
2018-09-04T01:24:13.307Z,20.27
2018-09-04T01:26:40.420Z,16.33
2018-09-04T01:29:07.781Z,16.50
2018-09-04T01:31:34.899Z,19.23
2018-09-04T01:34:02.158Z,16.90
2018-09-04T01:36:29.262Z,19.53
2018-09-04T01:38:56.481Z,18.47
2018-09-04T01:41:23.581Z,31.70
2018-09-04T01:43:50.765Z,17.70
2018-09-04T01:46:17.926Z,18.70
2018-09-04T01:48:45.093Z,21.00
2018-09-04T01:51:12.185Z,17.27
2018-09-04T01:53:39.289Z,18.03
2018-09-04T01:56:06.408Z,17.50
2018-09-04T01:58:33.513Z,17.80
2018-09-04T02:01:00.618Z,19.40
2018-09-04T02:03:27.729Z,17.80
2018-09-04T02:05:54.849Z,17.50
2018-09-04T02:08:21.955Z,17.83
2018-09-04T02:10:49.146Z,21.70
2018-09-04T02:13:16.233Z,19.10
2018-09-04T02:15:43.341Z,17.63
2018-09-04T02:18:10.717Z,16.40
2018-09-04T02:20:37.909Z,18.17
2018-09-04T02:23:05.009Z,20.63
2018-09-04T02:25:32.118Z,14.13
2018-09-04T02:27:59.450Z,15.20
2018-09-04T02:30:26.567Z,19.53
2018-09-04T02:32:53.719Z,18.90
2018-09-04T02:35:20.896Z,16.83
2018-09-04T02:37:47.983Z,17.27
2018-09-04T02:40:15.401Z,16.30
2018-09-04T02:42:42.501Z,20.70
2018-09-04T02:45:09.666Z,17.73
2018-09-04T02:47:36.781Z,18.77
2018-09-04T02:50:03.895Z,20.60
2018-09-04T02:52:31.001Z,17.73
2018-09-04T02:54:58.114Z,16.00
2018-09-04T02:57:25.218Z,18.50
2018-09-04T02:59:52.498Z,15.70
2018-09-04T03:02:19.602Z,18.13
2018-09-04T03:04:46.708Z,14.67
2018-09-04T03:07:13.808Z,15.50
2018-09-04T03:09:41.045Z,17.33
2018-09-04T03:12:08.390Z,16.30
2018-09-04T03:14:35.498Z,18.93
2018-09-04T03:17:02.646Z,18.60
2018-09-04T03:19:29.758Z,17.10
2018-09-04T03:21:56.870Z,16.77
2018-09-04T03:24:23.985Z,18.00
2018-09-04T03:26:51.702Z,21.20
2018-09-04T03:29:18.802Z,17.27
2018-09-04T03:31:45.904Z,16.80
2018-09-04T03:34:13.001Z,15.57
2018-09-04T03:36:40.134Z,13.83
2018-09-04T03:39:07.998Z,16.67
2018-09-04T03:41:35.129Z,16.70
2018-09-04T03:44:02.235Z,18.57
2018-09-04T03:46:29.345Z,16.67
2018-09-04T03:48:56.481Z,17.43
2018-09-04T03:51:23.632Z,18.37
2018-09-04T03:53:50.699Z,17.80
2018-09-04T03:56:17.814Z,17.63
2018-09-04T03:58:45.000Z,16.27
2018-09-04T04:01:12.011Z,16.40
2018-09-04T04:03:39.113Z,14.20
2018-09-04T04:06:06.228Z,20.13
2018-09-04T04:08:33.325Z,14.80
2018-09-04T04:11:00.436Z,18.63
2018-09-04T04:13:27.577Z,16.87
2018-09-04T04:15:54.683Z,17.87
2018-09-04T04:18:21.846Z,16.70
2018-09-04T04:20:56.265Z,20.40
2018-09-04T04:23:23.402Z,17.13
2018-09-04T04:25:50.574Z,16.97
2018-09-04T04:28:17.718Z,17.40
2018-09-04T04:30:44.813Z,17.10
2018-09-04T04:33:12.026Z,18.63
2018-09-04T04:35:39.042Z,17.20
2018-09-04T04:38:06.138Z,22.43
2018-09-04T04:40:33.256Z,18.20
2018-09-04T04:43:00.435Z,20.43
2018-09-04T04:45:27.543Z,17.97
2018-09-04T04:47:54.751Z,18.00
2018-09-04T04:50:22.054Z,19.00
2018-09-04T04:52:49.282Z,17.97
2018-09-04T04:55:16.463Z,19.27
2018-09-04T04:57:43.565Z,17.47
2018-09-04T05:00:10.686Z,15.20
2018-09-04T05:02:37.779Z,17.30
2018-09-04T05:05:04.889Z,18.87
2018-09-04T05:07:32.091Z,16.57
2018-09-04T05:09:59.233Z,19.20
2018-09-04T05:12:26.357Z,19.63
2018-09-04T05:14:53.474Z,16.60
2018-09-04T05:17:20.973Z,18.93
2018-09-04T05:19:48.107Z,20.47
2018-09-04T05:22:15.488Z,17.90
2018-09-04T05:24:42.586Z,19.07
2018-09-04T05:27:10.217Z,17.00
2018-09-04T05:29:37.326Z,19.30
2018-09-04T05:32:16.690Z,17.90
2018-09-04T05:34:44.105Z,21.20
2018-09-04T05:37:14.957Z,16.90
2018-09-04T05:39:44.088Z,20.77
2018-09-04T05:42:16.723Z,19.33
2018-09-04T05:44:45.668Z,18.97
2018-09-04T05:47:12.984Z,17.93
2018-09-04T05:49:40.094Z,17.57
2018-09-04T05:52:07.218Z,19.20
2018-09-04T05:54:34.321Z,21.93
2018-09-04T05:57:01.421Z,23.00
2018-09-04T05:59:28.542Z,21.50
2018-09-04T06:01:55.657Z,23.70
2018-09-04T06:04:22.837Z,23.63
2018-09-04T06:06:49.939Z,19.30
2018-09-04T06:09:18.782Z,22.43
2018-09-04T06:11:45.901Z,21.53
2018-09-04T06:14:13.382Z,19.57
2018-09-04T06:16:43.304Z,23.43
2018-09-04T06:19:12.642Z,23.17
2018-09-04T06:21:39.747Z,21.50
2018-09-04T06:24:06.864Z,22.00
2018-09-04T06:26:34.058Z,23.17
2018-09-04T06:29:01.171Z,23.20
2018-09-04T06:31:28.265Z,23.90
2018-09-04T06:33:55.393Z,26.07
2018-09-04T06:36:22.530Z,20.97
2018-09-04T06:38:49.681Z,21.13
2018-09-04T06:41:18.144Z,29.87
2018-09-04T06:43:45.523Z,30.93
2018-09-04T06:46:12.731Z,32.67
2018-09-04T06:48:39.849Z,31.23
2018-09-04T06:51:06.974Z,32.40
2018-09-04T06:53:34.070Z,34.93
2018-09-04T06:56:01.183Z,33.00
2018-09-04T06:58:28.296Z,36.47
2018-09-04T07:00:55.397Z,38.83
2018-09-04T07:03:22.598Z,32.97
2018-09-04T07:05:49.719Z,38.77
2018-09-04T07:08:16.946Z,39.03
2018-09-04T07:10:44.153Z,33.40
2018-09-04T07:13:12.338Z,42.13
2018-09-04T07:15:39.422Z,41.43
2018-09-04T07:18:06.536Z,35.40
2018-09-04T07:20:33.651Z,40.80
2018-09-04T07:23:00.762Z,37.93
2018-09-04T07:25:27.865Z,39.57
2018-09-04T07:27:54.970Z,38.27
2018-09-04T07:30:22.080Z,36.47
2018-09-04T07:32:49.189Z,33.70
2018-09-04T07:35:16.310Z,37.90
2018-09-04T07:37:43.458Z,35.53
2018-09-04T07:40:10.546Z,39.53
2018-09-04T07:42:38.057Z,36.77
2018-09-04T07:45:05.617Z,32.53
2018-09-04T07:47:32.715Z,33.87
2018-09-04T07:49:59.813Z,40.60
2018-09-04T07:52:26.913Z,33.67
2018-09-04T07:54:54.057Z,35.47
2018-09-04T07:57:21.155Z,33.10
2018-09-04T07:59:48.257Z,33.50
2018-09-04T08:02:15.367Z,35.20
2018-09-04T08:04:42.486Z,32.80
2018-09-04T08:07:09.592Z,35.10
2018-09-04T08:09:36.697Z,34.63
2018-09-04T08:12:03.801Z,30.40
2018-09-04T08:14:30.929Z,37.30
2018-09-04T08:16:58.225Z,35.43
2018-09-04T08:19:25.348Z,33.07
2018-09-04T08:21:52.463Z,31.90
2018-09-04T08:24:19.565Z,34.90
2018-09-04T08:26:46.695Z,33.60
2018-09-04T08:29:13.803Z,31.80
2018-09-04T08:31:40.943Z,33.93
2018-09-04T08:34:08.041Z,34.93
2018-09-04T08:36:35.151Z,34.77
2018-09-04T08:39:02.274Z,29.20
2018-09-04T08:41:29.476Z,31.37
2018-09-04T08:43:56.567Z,31.30
2018-09-04T08:46:23.678Z,32.57
2018-09-04T08:48:50.787Z,27.80
2018-09-04T08:51:17.969Z,31.53
2018-09-04T08:53:45.093Z,32.07
2018-09-04T08:56:12.191Z,28.97
2018-09-04T08:58:39.305Z,30.90
2018-09-04T09:01:06.449Z,31.90
2018-09-04T09:03:33.742Z,31.20
2018-09-04T09:06:00.898Z,28.90
2018-09-04T09:08:28.717Z,30.40
2018-09-04T09:10:56.092Z,31.37
2018-09-04T09:13:23.199Z,27.13
2018-09-04T09:15:50.649Z,28.83
2018-09-04T09:18:17.790Z,28.93
2018-09-04T09:20:45.054Z,27.07
2018-09-04T09:23:12.170Z,26.77
2018-09-04T09:25:39.346Z,25.90
2018-09-04T09:28:06.459Z,25.70
2018-09-04T09:30:34.233Z,23.00
2018-09-04T09:33:01.382Z,22.03
2018-09-04T09:35:28.506Z,19.60
2018-09-04T09:37:55.614Z,18.67
2018-09-04T09:40:22.746Z,21.93
2018-09-04T09:42:49.851Z,22.83
2018-09-04T09:45:17.005Z,22.57
2018-09-04T09:47:48.046Z,19.30
2018-09-04T09:50:15.255Z,17.60
2018-09-04T09:52:42.512Z,18.30
2018-09-04T09:55:10.053Z,17.43
2018-09-04T09:57:37.188Z,18.67
2018-09-04T10:00:04.606Z,16.53
2018-09-04T10:02:37.164Z,14.93
2018-09-04T10:05:04.265Z,14.27
2018-09-04T10:07:31.445Z,16.23
2018-09-04T10:09:58.598Z,14.20
2018-09-04T10:12:25.678Z,17.63
2018-09-04T10:14:52.827Z,16.60
2018-09-04T10:17:19.906Z,16.57
2018-09-04T10:19:47.129Z,17.23
2018-09-04T10:22:14.222Z,15.30
2018-09-04T10:24:41.331Z,14.23
2018-09-04T10:27:08.447Z,13.67
2018-09-04T10:29:35.555Z,14.37
2018-09-04T10:32:02.667Z,12.47
2018-09-04T10:34:29.805Z,13.00
2018-09-04T10:36:56.918Z,12.63
2018-09-04T10:39:29.470Z,12.43
2018-09-04T10:41:56.636Z,14.97
2018-09-04T10:44:23.760Z,13.17
2018-09-04T10:46:50.859Z,10.83
2018-09-04T10:49:17.967Z,10.57
2018-09-04T10:51:45.126Z,11.00
2018-09-04T10:54:12.241Z,12.03
2018-09-04T10:56:39.507Z,12.87
2018-09-04T10:59:06.695Z,12.70
2018-09-04T11:01:33.806Z,13.33
2018-09-04T11:04:00.918Z,15.33
2018-09-04T11:06:28.053Z,14.17
2018-09-04T11:08:55.165Z,15.70
2018-09-04T11:11:22.282Z,16.00
2018-09-04T11:13:49.395Z,13.13
2018-09-04T11:16:16.614Z,19.80
2018-09-04T11:18:43.713Z,14.03
2018-09-04T11:21:10.841Z,18.40
2018-09-04T11:23:37.971Z,15.47
2018-09-04T11:26:05.085Z,16.30
2018-09-04T11:28:33.019Z,13.53
2018-09-04T11:31:00.190Z,14.27
2018-09-04T11:33:27.674Z,13.17
2018-09-04T11:35:54.790Z,14.40
2018-09-04T11:38:21.907Z,13.20
2018-09-04T11:40:49.082Z,17.73
2018-09-04T11:43:16.195Z,14.83
2018-09-04T11:45:43.307Z,12.63
2018-09-04T11:48:14.962Z,15.07
2018-09-04T11:50:42.126Z,14.13
2018-09-04T11:53:09.270Z,13.63
2018-09-04T11:55:36.606Z,13.03
2018-09-04T11:58:03.815Z,13.20
2018-09-04T12:00:47.686Z,13.33
2018-09-04T12:03:15.830Z,12.83
2018-09-04T12:05:43.027Z,15.20
2018-09-04T12:08:10.326Z,12.63
2018-09-04T12:10:37.868Z,16.60
2018-09-04T12:13:05.298Z,15.13
2018-09-04T12:15:32.397Z,17.33
2018-09-04T12:17:59.506Z,12.93
2018-09-04T12:20:28.801Z,13.37
2018-09-04T12:22:56.122Z,12.13
2018-09-04T12:25:23.662Z,14.10
2018-09-04T12:27:50.825Z,12.80
2018-09-04T12:30:17.969Z,12.93
2018-09-04T12:32:45.094Z,13.53
2018-09-04T12:35:12.199Z,13.30
2018-09-04T12:37:39.318Z,12.77
2018-09-04T12:40:06.421Z,14.13
2018-09-04T12:42:33.604Z,13.60
2018-09-04T12:45:00.940Z,13.83
2018-09-04T12:47:28.044Z,13.17
2018-09-04T12:49:55.370Z,13.27
2018-09-04T12:52:22.511Z,18.47
2018-09-04T12:54:49.761Z,14.30
2018-09-04T12:57:16.797Z,13.03
2018-09-04T12:59:43.936Z,13.30
2018-09-04T13:02:11.034Z,12.20
2018-09-04T13:04:38.146Z,14.13
2018-09-04T13:07:05.341Z,12.23
2018-09-04T13:09:32.452Z,12.97
2018-09-04T13:11:59.556Z,12.13
2018-09-04T13:14:26.949Z,11.77
2018-09-04T13:16:54.054Z,13.43
2018-09-04T13:19:21.171Z,12.83
2018-09-04T13:21:48.385Z,13.80
2018-09-04T13:24:15.449Z,12.90
2018-09-04T13:26:42.577Z,12.63
2018-09-04T13:29:09.736Z,20.63
2018-09-04T13:31:36.846Z,13.70
2018-09-04T13:34:04.174Z,14.40
2018-09-04T13:36:31.352Z,12.70
2018-09-04T13:38:58.437Z,14.90
2018-09-04T13:41:28.867Z,29.90
2018-09-04T13:43:55.982Z,12.20
2018-09-04T13:46:23.209Z,12.80
2018-09-04T13:48:50.331Z,12.73
2018-09-04T13:51:17.443Z,13.70
2018-09-04T13:53:44.812Z,15.60
2018-09-04T13:56:11.932Z,13.80
2018-09-04T13:58:39.046Z,14.03
2018-09-04T14:01:06.158Z,12.53
2018-09-04T14:03:33.280Z,13.10
2018-09-04T14:06:00.409Z,22.23
2018-09-04T14:08:27.508Z,14.80
2018-09-04T14:10:54.645Z,13.63
2018-09-04T14:13:21.790Z,12.87
2018-09-04T14:15:49.306Z,13.40
2018-09-04T14:18:16.442Z,15.20
2018-09-04T14:20:43.593Z,15.93
2018-09-04T14:23:10.709Z,13.90
2018-09-04T14:25:37.901Z,13.00
2018-09-04T14:28:05.487Z,13.87
2018-09-04T14:30:32.664Z,13.03
2018-09-04T14:33:00.082Z,13.23
2018-09-04T14:35:27.200Z,12.57
2018-09-04T14:37:54.443Z,12.53
2018-09-04T14:40:21.539Z,12.67
2018-09-04T14:42:49.785Z,13.87
2018-09-04T14:45:16.926Z,14.20
2018-09-04T14:47:44.057Z,13.00
2018-09-04T14:50:11.208Z,13.47
2018-09-04T14:52:38.395Z,13.20
2018-09-04T14:55:05.513Z,13.80
2018-09-04T14:57:32.645Z,14.73
2018-09-04T15:00:00.130Z,14.03
2018-09-04T15:02:27.267Z,13.70
2018-09-04T15:04:54.437Z,12.43
2018-09-04T15:07:21.547Z,13.03
2018-09-04T15:09:48.666Z,14.00
2018-09-04T15:12:15.784Z,14.83
2018-09-04T15:14:42.906Z,15.63
2018-09-04T15:17:12.740Z,15.67
2018-09-04T15:19:39.950Z,14.97
2018-09-04T15:22:07.146Z,14.87
2018-09-04T15:24:34.285Z,20.67
2018-09-04T15:27:01.430Z,20.20
2018-09-04T15:29:28.586Z,27.63
2018-09-04T15:31:55.721Z,21.40
2018-09-04T15:34:22.887Z,20.43
2018-09-04T15:36:49.976Z,20.50
2018-09-04T15:39:17.142Z,20.50
2018-09-04T15:41:44.294Z,19.43
2018-09-04T15:44:11.409Z,26.30
2018-09-04T15:46:38.554Z,21.27
2018-09-04T15:49:11.180Z,24.53
2018-09-04T15:51:38.298Z,19.10
2018-09-04T15:54:11.468Z,21.00
2018-09-04T15:56:38.797Z,20.60
2018-09-04T15:59:05.901Z,23.27
2018-09-04T16:01:33.015Z,22.03
2018-09-04T16:04:00.136Z,22.30
2018-09-04T16:06:27.254Z,21.00
2018-09-04T16:08:54.503Z,21.30
2018-09-04T16:11:21.618Z,21.83
2018-09-04T16:13:48.820Z,21.47
2018-09-04T16:16:15.951Z,19.70
2018-09-04T16:18:43.153Z,18.43
2018-09-04T16:21:10.269Z,19.87
2018-09-04T16:23:37.423Z,23.33
2018-09-04T16:26:04.630Z,19.70
2018-09-04T16:28:31.779Z,20.07
2018-09-04T16:30:58.932Z,21.30
2018-09-04T16:33:26.066Z,20.20
2018-09-04T16:35:53.270Z,21.30
2018-09-04T16:38:20.422Z,17.70
2018-09-04T16:40:47.634Z,18.00
2018-09-04T16:43:14.834Z,18.73
2018-09-04T16:45:42.089Z,25.07
2018-09-04T16:48:09.275Z,19.53
2018-09-04T16:50:36.404Z,19.07
2018-09-04T16:53:03.637Z,21.00
2018-09-04T16:55:31.117Z,16.60
2018-09-04T16:57:58.235Z,20.33
2018-09-04T17:00:25.404Z,18.53
2018-09-04T17:02:52.526Z,20.10
2018-09-04T17:05:19.866Z,21.43
2018-09-04T17:07:47.079Z,19.57
2018-09-04T17:10:14.309Z,19.00
2018-09-04T17:12:41.425Z,16.80
2018-09-04T17:15:08.554Z,19.20
2018-09-04T17:17:39.275Z,18.67
2018-09-04T17:20:06.498Z,27.37
2018-09-04T17:22:33.725Z,19.63
2018-09-04T17:25:00.828Z,19.87
2018-09-04T17:27:27.943Z,18.20
2018-09-04T17:29:55.063Z,18.43
2018-09-04T17:32:22.326Z,17.60
2018-09-04T17:34:49.583Z,19.57
2018-09-04T17:37:18.831Z,19.13
2018-09-04T17:39:46.078Z,18.03
2018-09-04T17:42:13.431Z,18.60
2018-09-04T17:44:40.566Z,16.60
2018-09-04T17:47:07.720Z,18.43
2018-09-04T17:49:34.936Z,18.53
2018-09-04T17:52:02.068Z,19.60
2018-09-04T17:54:29.185Z,18.67
2018-09-04T17:56:56.365Z,18.60
2018-09-04T17:59:23.486Z,18.67
2018-09-04T18:01:50.849Z,17.27
2018-09-04T18:04:17.970Z,19.13
2018-09-04T18:06:45.129Z,17.87
2018-09-04T18:09:12.318Z,18.33
2018-09-04T18:11:39.574Z,19.27
2018-09-04T18:14:06.695Z,21.03
2018-09-04T18:16:33.811Z,18.27
2018-09-04T18:19:00.913Z,19.47
2018-09-04T18:21:28.065Z,17.60
2018-09-04T18:23:55.209Z,18.63
2018-09-04T18:26:22.563Z,18.37
2018-09-04T18:28:49.842Z,19.70
2018-09-04T18:31:16.961Z,19.70
2018-09-04T18:33:44.102Z,18.30
2018-09-04T18:36:11.213Z,20.23
2018-09-04T18:38:38.346Z,18.57
2018-09-04T18:41:05.836Z,18.20
2018-09-04T18:43:33.101Z,17.80
2018-09-04T18:46:00.587Z,17.07
2018-09-04T18:48:27.739Z,16.40
2018-09-04T18:50:54.866Z,17.67
2018-09-04T18:53:22.094Z,17.77
2018-09-04T18:55:49.238Z,17.77
2018-09-04T18:58:16.415Z,19.83
2018-09-04T19:00:43.993Z,19.27
2018-09-04T19:03:11.117Z,21.57
2018-09-04T19:05:38.383Z,19.77
2018-09-04T19:08:05.582Z,18.87
2018-09-04T19:10:32.962Z,20.10
2018-09-04T19:13:00.169Z,19.47
2018-09-04T19:15:28.328Z,22.13
2018-09-04T19:17:55.423Z,21.17
2018-09-04T19:20:22.924Z,20.87
2018-09-04T19:22:50.162Z,20.63
2018-09-04T19:25:17.363Z,22.80
2018-09-04T19:27:44.487Z,20.47
2018-09-04T19:30:11.594Z,19.33
2018-09-04T19:32:38.703Z,22.10
2018-09-04T19:35:05.825Z,22.33
2018-09-04T19:37:32.964Z,21.10
2018-09-04T19:40:00.081Z,18.47
2018-09-04T19:42:27.203Z,18.90
2018-09-04T19:44:54.328Z,17.67
2018-09-04T19:47:21.442Z,18.70
2018-09-04T19:49:48.838Z,17.83
2018-09-04T19:52:16.560Z,18.80
2018-09-04T19:54:44.058Z,21.30
2018-09-04T19:57:11.190Z,18.20
2018-09-04T19:59:38.636Z,17.53
2018-09-04T20:02:08.388Z,18.70
2018-09-04T20:04:35.640Z,17.13
2018-09-04T20:07:03.014Z,16.50
2018-09-04T20:09:30.697Z,21.33
2018-09-04T20:11:57.843Z,20.77
2018-09-04T20:14:24.970Z,19.10
2018-09-04T20:16:52.096Z,19.47
2018-09-04T20:19:19.242Z,18.70
2018-09-04T20:21:46.646Z,23.40
2018-09-04T20:24:13.905Z,17.27
2018-09-04T20:26:41.012Z,18.17
2018-09-04T20:29:08.118Z,19.43
2018-09-04T20:31:35.217Z,24.13
2018-09-04T20:34:02.341Z,18.63
2018-09-04T20:36:29.458Z,20.07
2018-09-04T20:38:56.571Z,19.40
2018-09-04T20:41:23.838Z,18.13
2018-09-04T20:43:50.946Z,18.70
2018-09-04T20:46:18.069Z,16.33
2018-09-04T20:48:45.193Z,21.67
2018-09-04T20:51:12.308Z,16.80
2018-09-04T20:53:39.437Z,20.37
2018-09-04T20:56:06.911Z,19.80
2018-09-04T20:58:39.530Z,16.00
2018-09-04T21:01:12.354Z,19.70
2018-09-04T21:03:45.174Z,18.30
2018-09-04T21:06:18.042Z,20.90
2018-09-04T21:09:54.414Z,23.40
2018-09-04T21:12:21.517Z,18.93
2018-09-04T21:14:48.621Z,25.23
2018-09-04T21:17:15.752Z,21.20
2018-09-04T21:19:42.907Z,20.50
2018-09-04T21:22:10.041Z,18.47
2018-09-04T21:24:37.153Z,18.40
2018-09-04T21:27:04.270Z,19.70
2018-09-04T21:29:31.379Z,17.53
2018-09-04T21:31:58.494Z,23.20
2018-09-04T21:34:25.761Z,20.67
2018-09-04T21:36:53.004Z,26.30
2018-09-04T21:39:20.372Z,22.60
2018-09-04T21:41:47.612Z,20.63
2018-09-04T21:44:14.969Z,21.87
2018-09-04T21:46:42.230Z,27.37
2018-09-04T21:49:09.640Z,17.90
2018-09-04T21:51:36.758Z,19.10
2018-09-04T21:54:03.875Z,25.63
2018-09-04T21:56:31.013Z,28.80
2018-09-04T21:58:58.117Z,20.80
2018-09-04T22:01:25.238Z,21.17
2018-09-04T22:03:52.345Z,19.43
2018-09-04T22:06:19.469Z,24.03
2018-09-04T22:08:46.999Z,20.63
2018-09-04T22:11:14.145Z,18.87
2018-09-04T22:13:41.334Z,19.00
2018-09-04T22:16:08.493Z,20.10
2018-09-04T22:18:36.149Z,32.77
2018-09-04T22:21:03.287Z,34.50
2018-09-04T22:23:30.410Z,21.77
2018-09-04T22:25:57.525Z,23.20
2018-09-04T22:28:24.653Z,26.70
2018-09-04T22:30:52.235Z,22.27
2018-09-04T22:33:19.501Z,27.63
2018-09-04T22:35:46.810Z,22.17
2018-09-04T22:38:14.065Z,22.10
2018-09-04T22:40:41.318Z,23.97
2018-09-04T22:43:08.579Z,20.13
2018-09-04T22:45:35.703Z,21.33
2018-09-04T22:48:02.843Z,26.10
2018-09-04T22:50:35.883Z,24.37
2018-09-04T22:53:03.010Z,24.10
2018-09-04T22:55:30.115Z,24.83
2018-09-04T22:57:57.225Z,25.20
2018-09-04T23:00:24.334Z,25.53
2018-09-04T23:02:51.445Z,21.90
2018-09-04T23:05:18.604Z,23.70
2018-09-04T23:07:45.669Z,23.47
2018-09-04T23:10:12.777Z,22.40
2018-09-04T23:12:39.994Z,28.03
2018-09-04T23:15:07.114Z,23.43
2018-09-04T23:17:34.276Z,26.63
2018-09-04T23:20:01.392Z,21.97
2018-09-04T23:22:28.514Z,24.60
2018-09-04T23:24:55.629Z,23.33
2018-09-04T23:27:22.733Z,22.13
2018-09-04T23:29:49.853Z,23.80
2018-09-04T23:32:16.975Z,25.30
2018-09-04T23:34:44.126Z,26.63
2018-09-04T23:37:11.234Z,24.57
2018-09-04T23:39:38.347Z,23.10
2018-09-04T23:42:05.705Z,23.73
2018-09-04T23:44:32.819Z,28.13
2018-09-04T23:47:00.282Z,22.37
2018-09-04T23:49:27.822Z,25.70
2018-09-04T23:51:54.931Z,20.80
2018-09-04T23:54:22.047Z,22.20
